Time;durP1;ratioP1;P1;durP2;ratioP2;P2;SDS_P1;SDS_P2;PMS_P1;PMS_P2;Temp;Humidity;BMP_temperature;BMP_pressure;BME280_temperature;BME280_humidity;BME280_pressure;Samples;Min_cycle;Max_cycle;Signal;HPM_P1;HPM_P2
2022/07/15 00:02:07;;;;;;;1.87;0.60;;;;;;;17.11;86.90;96308.73;1789034;79;20982;-83
2022/07/15 00:04:34;;;;;;;1.20;0.90;;;;;;;17.07;86.15;96312.81;1790037;78;21318;-83
2022/07/15 00:07:00;;;;;;;1.00;0.70;;;;;;;17.04;86.38;96349.50;1788510;79;20915;-83
2022/07/15 00:12:11;;;;;;;1.15;0.60;;;;;;;17.04;85.84;96327.19;1765110;79;21034;-82
2022/07/15 00:14:38;;;;;;;3.52;1.07;;;;;;;17.04;85.68;96319.83;1792135;79;20968;-84
2022/07/15 00:17:04;;;;;;;1.10;0.80;;;;;;;17.06;86.47;96323.02;1782988;80;20973;-83
2022/07/15 00:19:31;;;;;;;1.87;0.80;;;;;;;17.01;87.19;96303.22;1781826;79;21078;-83
2022/07/15 00:21:56;;;;;;;0.80;0.80;;;;;;;16.94;86.79;96298.08;1782959;78;21010;-83
2022/07/15 00:24:22;;;;;;;3.35;0.75;;;;;;;16.89;87.41;96278.24;1786827;78;20954;-81
2022/07/15 00:26:48;;;;;;;2.77;0.90;;;;;;;16.85;88.20;96282.34;1836245;77;21248;-81
2022/07/15 00:29:14;;;;;;;0.95;0.78;;;;;;;16.83;87.88;96277.03;1826875;77;21006;-81
2022/07/15 00:31:40;;;;;;;1.95;0.80;;;;;;;16.84;87.98;96283.88;1783807;78;21723;-82
2022/07/15 00:34:05;;;;;;;1.90;1.10;;;;;;;16.84;88.18;96283.88;1785408;78;20967;-82
2022/07/15 00:36:31;;;;;;;1.62;0.75;;;;;;;16.83;88.55;96287.53;1787470;78;20920;-83
2022/07/15 00:38:57;;;;;;;1.60;0.78;;;;;;;16.79;88.72;96289.30;1784314;78;20981;-83
2022/07/15 00:41:23;;;;;;;1.75;1.02;;;;;;;16.77;88.87;96297.91;1780318;78;21046;-83
2022/07/15 00:43:49;;;;;;;1.25;0.82;;;;;;;16.72;89.08;96295.13;1780475;78;20955;-83
2022/07/15 00:46:17;;;;;;;0.90;0.55;;;;;;;16.72;89.01;96284.62;1785767;78;21415;-82
2022/07/15 00:48:43;;;;;;;0.50;0.40;;;;;;;16.72;89.18;96287.25;1786491;78;21012;-82
2022/07/15 00:51:09;;;;;;;1.07;0.80;;;;;;;16.72;89.31;96285.94;1789746;78;21493;-83
2022/07/15 00:53:34;;;;;;;0.62;0.50;;;;;;;16.73;89.29;96286.23;1787872;78;20983;-83
2022/07/15 00:56:01;;;;;;;1.20;0.60;;;;;;;16.73;89.65;96284.91;1814115;77;20940;-82
2022/07/15 00:58:27;;;;;;;1.40;0.50;;;;;;;16.77;89.43;96292.66;1814316;78;20940;-82
2022/07/15 01:00:54;;;;;;;1.20;0.93;;;;;;;16.84;89.60;96290.44;1800962;78;20935;-83
2022/07/15 01:03:20;;;;;;;1.50;0.70;;;;;;;16.85;89.53;96292.04;1794771;79;20948;-82
2022/07/15 01:05:47;;;;;;;1.50;0.60;;;;;;;16.88;89.36;96292.39;1797382;78;21038;-81
2022/07/15 01:08:17;;;;;;;4.05;0.70;;;;;;;16.90;89.45;96292.96;1798962;78;21013;-82
2022/07/15 01:10:43;;;;;;;1.60;0.60;;;;;;;16.92;89.23;96292.73;1799291;78;21350;-82
2022/07/15 01:13:09;;;;;;;1.80;1.15;;;;;;;16.92;89.26;96294.05;1795270;78;20975;-82
2022/07/15 01:15:36;;;;;;;1.82;0.65;;;;;;;16.90;89.51;96298.21;1796781;78;20924;-81
2022/07/15 01:18:02;;;;;;;2.12;1.00;;;;;;;16.93;89.42;96297.79;1796501;78;21007;-82
2022/07/15 01:20:28;;;;;;;1.77;0.90;;;;;;;16.95;89.47;96300.19;1799184;78;21002;-82
2022/07/15 01:22:54;;;;;;;1.40;1.00;;;;;;;16.98;89.64;96300.53;1780432;79;20963;-81
2022/07/15 01:25:20;;;;;;;1.12;1.00;;;;;;;16.99;89.21;96306.58;1808163;77;21349;-82
2022/07/15 01:27:46;;;;;;;1.80;0.93;;;;;;;16.96;89.24;96296.02;1807717;77;20943;-82
2022/07/15 01:30:12;;;;;;;1.22;0.90;;;;;;;17.00;89.25;96310.80;1798758;78;20967;-82
2022/07/15 01:32:37;;;;;;;1.10;0.98;;;;;;;17.00;89.30;96311.61;1802595;78;20948;-82
2022/07/15 01:35:04;;;;;;;3.10;0.85;;;;;;;17.01;89.48;96309.27;1791607;79;20982;-81
2022/07/15 01:37:30;;;;;;;2.00;1.20;;;;;;;17.01;89.34;96309.27;1796971;78;20990;-82
2022/07/15 01:39:55;;;;;;;1.42;0.95;;;;;;;17.00;88.98;96310.80;1801829;78;20970;-82
2022/07/15 01:42:21;;;;;;;2.35;0.80;;;;;;;17.02;89.02;96320.56;1795994;78;20982;-82
2022/07/15 01:44:47;;;;;;;3.27;0.90;;;;;;;17.04;89.17;96320.63;1790567;79;21366;-82
2022/07/15 01:47:13;;;;;;;2.15;0.90;;;;;;;17.03;89.24;96327.41;1819896;77;20967;-81
2022/07/15 01:49:38;;;;;;;2.47;0.80;;;;;;;17.05;89.16;96329.30;1825565;77;20942;-81
2022/07/15 01:52:05;;;;;;;3.10;0.85;;;;;;;17.10;89.21;96321.58;1817384;77;20954;-82
2022/07/15 01:54:31;;;;;;;2.42;0.90;;;;;;;17.11;89.23;96327.11;1778146;79;20929;-82
2022/07/15 01:56:57;;;;;;;1.12;0.90;;;;;;;17.08;88.55;96338.04;1768828;79;21033;-82
2022/07/15 01:59:24;;;;;;;2.20;0.95;;;;;;;17.08;88.99;96341.97;1778719;79;21029;-82
2022/07/15 02:01:51;;;;;;;1.87;1.42;;;;;;;17.05;88.87;96337.17;1788894;79;20982;-83
2022/07/15 02:04:17;;;;;;;1.07;0.80;;;;;;;17.06;89.13;96341.41;1818902;77;20951;-81
2022/07/15 02:06:43;;;;;;;2.45;1.20;;;;;;;17.07;89.15;96345.11;1832069;77;21378;-81
2022/07/15 02:09:09;;;;;;;2.08;1.40;;;;;;;17.04;87.96;96352.13;1822365;77;20887;-81
2022/07/15 02:11:34;;;;;;;2.52;1.22;;;;;;;17.03;88.25;96347.91;1778620;79;21030;-81
2022/07/15 02:14:01;;;;;;;3.60;1.85;;;;;;;17.03;88.16;96354.47;1820337;77;21035;-82
2022/07/15 02:16:30;;;;;;;2.95;1.20;;;;;;;17.07;88.46;96355.61;1796586;78;20974;-83
2022/07/15 02:18:57;;;;;;;2.30;1.27;;;;;;;17.11;88.20;96363.87;1791807;78;20998;-81
2022/07/15 02:21:24;;;;;;;2.17;1.70;;;;;;;17.11;88.13;96363.87;1790926;78;21095;-81
2022/07/15 02:23:49;;;;;;;3.15;2.00;;;;;;;17.06;87.66;96370.27;1797602;78;21070;-81
2022/07/15 02:26:15;;;;;;;2.30;1.30;;;;;;;17.06;87.92;96369.77;1786523;78;21435;-82
2022/07/15 02:28:41;;;;;;;1.70;1.40;;;;;;;17.06;87.93;96372.90;1795592;78;20955;-82
2022/07/15 02:31:07;;;;;;;1.82;1.50;;;;;;;17.11;87.78;96378.30;1828096;77;21026;-82
2022/07/15 02:33:32;;;;;;;2.60;1.50;;;;;;;17.11;87.82;96378.30;1820225;77;20928;-82
2022/07/15 02:35:58;;;;;;;4.35;1.70;;;;;;;17.10;88.12;96375.39;1796772;78;20959;-82
2022/07/15 02:38:24;;;;;;;2.42;1.80;;;;;;;17.15;87.93;96383.39;1792179;78;20955;-81
2022/07/15 02:40:50;;;;;;;3.50;2.30;;;;;;;17.15;87.96;96387.33;1821456;77;20970;-82
2022/07/15 02:43:17;;;;;;;3.27;2.67;;;;;;;17.14;88.11;96389.67;1824836;77;21152;-82
2022/07/15 02:45:43;;;;;;;3.15;2.90;;;;;;;17.11;88.18;96398.00;1789860;78;21468;-82
2022/07/15 02:48:08;;;;;;;5.33;4.35;;;;;;;17.08;88.26;96399.73;1825955;77;21019;-82
2022/07/15 02:50:34;;;;;;;5.05;3.95;;;;;;;17.10;88.49;96395.08;1794189;78;21041;-82
2022/07/15 02:53:02;;;;;;;5.20;3.65;;;;;;;17.10;88.44;96403.76;1792529;78;20905;-82
2022/07/15 02:55:28;;;;;;;5.45;4.20;;;;;;;17.14;88.62;96402.80;1793251;78;21425;-82
2022/07/15 02:57:54;;;;;;;6.62;4.72;;;;;;;17.17;88.70;96401.55;1785200;79;20972;-82
2022/07/15 03:00:20;;;;;;;5.80;4.60;;;;;;;17.15;88.57;96400.46;1806832;79;20980;-81
2022/07/15 03:02:46;;;;;;;6.35;5.40;;;;;;;17.11;88.70;96403.25;1790934;79;20975;-81
2022/07/15 03:05:13;;;;;;;6.80;5.97;;;;;;;17.13;88.86;96410.39;1790339;79;21346;-81
2022/07/15 03:07:39;;;;;;;6.25;5.60;;;;;;;17.16;88.88;96409.94;1784623;78;21327;-82
2022/07/15 03:10:06;;;;;;;7.10;6.15;;;;;;;17.14;88.99;96410.67;1818667;77;21035;-81
2022/07/15 03:12:32;;;;;;;7.00;5.33;;;;;;;17.11;89.17;96420.31;1793861;78;21026;-81
2022/07/15 03:14:58;;;;;;;7.33;6.05;;;;;;;17.10;89.32;96419.52;1826148;77;20936;-81
2022/07/15 03:17:24;;;;;;;9.48;6.95;;;;;;;17.08;89.31;96424.67;1790270;79;20979;-81
2022/07/15 03:19:50;;;;;;;7.47;5.95;;;;;;;17.04;89.09;96428.77;1813192;77;21295;-82
2022/07/15 03:22:15;;;;;;;8.63;7.80;;;;;;;17.00;89.43;96436.80;1811084;78;20939;-83
2022/07/15 03:24:41;;;;;;;8.25;7.45;;;;;;;16.95;89.21;96432.22;1775609;78;20948;-82
2022/07/15 03:27:08;;;;;;;8.43;7.58;;;;;;;16.95;89.42;96436.16;1802873;78;20903;-82
2022/07/15 03:29:34;;;;;;;9.50;8.60;;;;;;;16.93;89.42;96441.34;1832079;77;20935;-83
2022/07/15 03:32:00;;;;;;;8.40;7.45;;;;;;;16.92;89.69;96444.95;1791589;79;20998;-81
2022/07/15 03:34:26;;;;;;;9.18;8.38;;;;;;;16.89;89.57;96443.58;1782705;78;21022;-82
2022/07/15 03:36:53;;;;;;;9.65;8.58;;;;;;;16.88;89.43;96447.73;1789842;79;22128;-82
2022/07/15 03:39:19;;;;;;;10.35;9.20;;;;;;;16.91;89.71;96452.54;1828631;77;21048;-83
2022/07/15 03:41:46;;;;;;;11.70;10.63;;;;;;;16.90;89.09;96453.05;1787466;79;20983;-82
2022/07/15 03:44:13;;;;;;;10.70;9.38;;;;;;;16.88;89.07;96456.41;1797681;78;21002;-83
2022/07/15 03:46:40;;;;;;;13.32;9.33;;;;;;;16.83;88.82;96462.03;1826871;77;21436;-83
2022/07/15 03:49:06;;;;;;;9.45;8.43;;;;;;;16.80;89.17;96456.20;1834191;77;21034;-81
2022/07/15 03:51:32;;;;;;;11.35;8.30;;;;;;;16.83;89.60;96457.59;1826562;77;21018;-81
2022/07/15 03:54:02;;;;;;;10.82;9.13;;;;;;;16.76;89.99;96462.91;1820878;77;21009;-81
2022/07/15 03:56:28;;;;;;;9.25;8.35;;;;;;;16.74;89.54;96465.44;1782879;79;21418;-83
2022/07/15 03:58:54;;;;;;;12.33;9.55;;;;;;;16.76;89.86;96465.54;1819586;77;21002;-81
2022/07/15 04:01:20;;;;;;;10.98;9.93;;;;;;;16.75;89.63;96470.47;1825989;77;20959;-82
2022/07/15 04:03:48;;;;;;;11.18;10.08;;;;;;;16.72;89.26;96472.22;1830569;77;20963;-82
2022/07/15 04:06:15;;;;;;;11.78;10.65;;;;;;;16.74;89.69;96477.25;1824698;77;20926;-82
2022/07/15 04:08:41;;;;;;;15.85;13.53;;;;;;;16.70;89.56;96481.33;1784685;78;20948;-81
2022/07/15 04:11:07;;;;;;;16.60;15.10;;;;;;;16.68;89.60;96486.00;1782462;78;20995;-82
2022/07/15 04:13:33;;;;;;;17.35;15.65;;;;;;;16.65;89.23;96493.77;1792716;78;21498;-82
2022/07/15 04:15:58;;;;;;;17.80;15.70;;;;;;;16.66;89.29;96491.44;1789903;78;21310;-82
2022/07/15 04:18:24;;;;;;;15.45;14.03;;;;;;;16.70;89.20;96493.94;1790526;78;21346;-82
2022/07/15 04:20:50;;;;;;;17.35;15.85;;;;;;;16.74;89.50;96486.43;1788701;78;20944;-81
2022/07/15 04:23:16;;;;;;;18.10;16.42;;;;;;;16.77;89.48;96499.14;1789140;78;20979;-82
2022/07/15 04:25:42;;;;;;;18.17;16.57;;;;;;;16.72;88.88;96500.28;1789189;78;20968;-82
2022/07/15 04:28:08;;;;;;;19.10;17.40;;;;;;;16.65;88.96;96516.58;1790515;78;20904;-82
2022/07/15 04:30:33;;;;;;;19.07;17.27;;;;;;;16.58;89.13;96523.18;1787686;78;20965;-82
2022/07/15 04:32:59;;;;;;;20.43;18.27;;;;;;;16.48;89.11;96523.69;1790408;78;20956;-82
2022/07/15 04:35:25;;;;;;;20.08;17.98;;;;;;;16.38;89.36;96527.80;1789377;78;20928;-82
2022/07/15 04:37:51;;;;;;;20.97;18.73;;;;;;;16.32;89.30;96535.22;1791363;79;21019;-81
2022/07/15 04:40:17;;;;;;;19.12;17.12;;;;;;;16.30;89.45;96536.75;1788077;78;21000;-81
2022/07/15 04:42:42;;;;;;;18.35;16.45;;;;;;;16.29;89.38;96545.63;1789511;78;21015;-82
2022/07/15 04:45:10;;;;;;;21.10;17.73;;;;;;;16.26;89.17;96549.97;1789319;78;20984;-82
2022/07/15 04:47:35;;;;;;;18.45;16.62;;;;;;;16.25;89.10;96552.80;1790345;78;21321;-82
2022/07/15 04:52:46;;;;;;;18.62;16.82;;;;;;;16.20;89.05;96560.81;1788274;78;21117;-82
2022/07/15 04:55:12;;;;;;;17.95;16.17;;;;;;;16.14;88.95;96561.67;1789083;78;21034;-82
2022/07/15 04:57:38;;;;;;;17.70;15.90;;;;;;;16.16;89.28;96569.31;1793970;78;20905;-81
2022/07/15 05:00:07;;;;;;;16.23;14.50;;;;;;;16.16;89.25;96572.74;1792565;78;21338;-81
2022/07/15 05:02:32;;;;;;;14.60;13.28;;;;;;;16.18;88.97;96567.28;1770502;79;21019;-82
2022/07/15 05:04:58;;;;;;;13.98;12.65;;;;;;;16.17;88.56;96578.28;1754722;79;22119;-82
2022/07/15 05:07:24;;;;;;;14.30;12.90;;;;;;;16.18;88.71;96581.19;1788247;78;21322;-82
2022/07/15 05:09:50;;;;;;;16.62;13.65;;;;;;;16.19;88.05;96576.24;1790625;78;20967;-83
2022/07/15 05:12:15;;;;;;;15.55;14.18;;;;;;;16.21;88.26;96588.63;1784445;78;21363;-82
2022/07/15 05:14:41;;;;;;;14.38;12.98;;;;;;;16.15;87.73;96592.11;1782820;80;21022;-83
2022/07/15 05:17:10;;;;;;;14.45;12.93;;;;;;;16.02;87.58;96593.49;1784258;78;20936;-82
2022/07/15 05:19:36;;;;;;;14.58;12.68;;;;;;;15.95;87.86;96600.60;1780156;79;21070;-82
2022/07/15 05:22:03;;;;;;;11.65;10.55;;;;;;;15.93;87.93;96609.16;1783170;79;21027;-82
2022/07/15 05:24:29;;;;;;;11.90;10.75;;;;;;;15.90;87.16;96610.89;1782356;79;21135;-83
2022/07/15 05:26:55;;;;;;;12.93;10.35;;;;;;;15.88;86.63;96608.98;1798089;78;21066;-82
2022/07/15 05:29:23;;;;;;;12.33;10.48;;;;;;;15.97;86.86;96610.36;1798728;78;21019;-82
2022/07/15 05:31:49;;;;;;;10.98;9.95;;;;;;;16.02;86.65;96613.15;1799725;78;20958;-82
2022/07/15 05:34:16;;;;;;;12.65;11.18;;;;;;;16.07;86.16;96610.69;1797826;78;20966;-82
2022/07/15 05:36:42;;;;;;;13.15;10.88;;;;;;;16.11;85.74;96609.79;1797302;78;21049;-81
2022/07/15 05:39:07;;;;;;;11.38;10.23;;;;;;;16.13;86.25;96612.48;1791080;79;21311;-82
2022/07/15 05:41:33;;;;;;;13.10;10.28;;;;;;;16.15;85.95;96614.90;1796503;78;21014;-82
2022/07/15 05:44:00;;;;;;;11.55;9.38;;;;;;;16.19;85.62;96614.77;1788595;79;20937;-82
2022/07/15 05:46:26;;;;;;;10.48;9.48;;;;;;;16.17;84.63;96620.22;1830540;77;21018;-82
2022/07/15 05:48:52;;;;;;;10.60;9.60;;;;;;;16.15;84.39;96617.01;1782985;79;21282;-82
2022/07/15 05:51:18;;;;;;;10.55;9.38;;;;;;;16.14;84.40;96618.53;1797674;78;20922;-83
2022/07/15 05:53:44;;;;;;;10.48;9.28;;;;;;;16.13;83.86;96617.73;1794527;79;20967;-82
2022/07/15 05:56:09;;;;;;;9.60;8.10;;;;;;;16.15;83.93;96617.01;1799627;78;21340;-82
2022/07/15 05:58:35;;;;;;;10.30;8.30;;;;;;;16.18;83.91;96617.89;1800632;78;21028;-82
2022/07/15 06:01:02;;;;;;;9.03;8.13;;;;;;;16.20;83.35;96626.34;1801422;78;21793;-82
2022/07/15 06:03:28;;;;;;;8.70;7.55;;;;;;;16.27;83.28;96633.36;1799762;78;20974;-82
2022/07/15 06:05:54;;;;;;;9.53;8.55;;;;;;;16.28;83.17;96644.17;1798936;78;20931;-83
2022/07/15 06:08:20;;;;;;;10.53;9.60;;;;;;;16.41;83.66;96655.87;1781863;79;20947;-82
2022/07/15 06:10:45;;;;;;;12.65;9.23;;;;;;;16.47;83.39;96650.59;1785526;78;20999;-81
2022/07/15 06:13:12;;;;;;;9.90;7.97;;;;;;;16.46;83.41;96652.12;1791210;78;21360;-83
2022/07/15 06:15:39;;;;;;;11.08;7.90;;;;;;;16.51;82.90;96655.71;1778855;79;21047;-82
2022/07/15 06:18:04;;;;;;;8.65;7.78;;;;;;;16.56;82.89;96662.13;1782643;79;20990;-82
2022/07/15 06:20:30;;;;;;;10.38;8.00;;;;;;;16.64;82.70;96658.76;1742959;79;21017;-83
2022/07/15 06:22:57;;;;;;;10.32;8.45;;;;;;;16.69;82.80;96666.81;1775668;79;21010;-83
2022/07/15 06:25:22;;;;;;;9.78;7.85;;;;;;;16.71;81.89;96666.59;1772802;79;21306;-83
2022/07/15 06:27:48;;;;;;;9.60;6.80;;;;;;;16.74;82.46;96665.66;1776716;79;21046;-83
2022/07/15 06:30:14;;;;;;;10.03;6.83;;;;;;;16.79;82.46;96670.29;1768927;79;20959;-83
2022/07/15 06:32:40;;;;;;;11.08;6.70;;;;;;;16.93;83.35;96673.62;1773356;79;20959;-83
2022/07/15 06:35:07;;;;;;;7.72;6.10;;;;;;;16.97;81.54;96677.41;1777583;79;20932;-82
2022/07/15 06:37:32;;;;;;;7.85;6.03;;;;;;;17.05;81.48;96680.55;1782064;79;21489;-83
2022/07/15 06:39:58;;;;;;;7.60;5.55;;;;;;;17.10;81.84;96683.36;1771887;79;21080;-81
2022/07/15 06:42:24;;;;;;;7.00;5.37;;;;;;;17.04;80.32;96682.09;1780757;79;20978;-83
2022/07/15 06:44:50;;;;;;;7.97;5.78;;;;;;;16.97;80.44;96688.72;1772164;79;20974;-83
2022/07/15 06:47:16;;;;;;;6.33;5.17;;;;;;;16.98;79.58;96686.89;1773534;79;20977;-83
2022/07/15 06:49:42;;;;;;;7.37;5.10;;;;;;;17.01;79.49;96695.65;1773463;79;21538;-83
2022/07/15 06:52:08;;;;;;;8.68;5.37;;;;;;;17.02;78.86;96696.74;1777890;79;20931;-83
2022/07/15 06:54:33;;;;;;;8.03;5.42;;;;;;;16.95;79.24;96705.70;1770033;79;20986;-81
2022/07/15 06:57:01;;;;;;;5.33;4.83;;;;;;;16.96;79.70;96705.99;1790538;79;21001;-81
2022/07/15 06:59:26;;;;;;;10.20;4.17;;;;;;;16.96;80.15;96710.73;1787638;79;21091;-81
2022/07/15 07:01:52;;;;;;;5.65;4.00;;;;;;;16.94;79.46;96715.91;1788999;79;20939;-83
2022/07/15 07:04:18;;;;;;;6.47;3.75;;;;;;;16.84;77.92;96714.25;1789411;79;21452;-83
2022/07/15 07:06:44;;;;;;;6.67;3.85;;;;;;;16.87;77.08;96713.31;1782212;79;21356;-83
2022/07/15 07:09:11;;;;;;;7.35;4.42;;;;;;;17.00;77.26;96720.30;1781183;79;20970;-82
2022/07/15 07:11:37;;;;;;;5.95;2.80;;;;;;;17.07;76.39;96714.47;1778419;79;20958;-83
2022/07/15 07:14:03;;;;;;;5.95;3.42;;;;;;;17.06;76.40;96714.98;1810729;77;20966;-83
2022/07/15 07:16:30;;;;;;;7.25;2.62;;;;;;;16.99;76.38;96716.86;1817390;77;20962;-83
2022/07/15 07:18:56;;;;;;;6.95;2.80;;;;;;;16.95;76.11;96720.94;1825203;77;21374;-84
2022/07/15 07:21:22;;;;;;;5.65;2.90;;;;;;;16.98;75.51;96723.13;1814980;77;20928;-83
2022/07/15 07:23:48;;;;;;;6.87;2.77;;;;;;;17.02;76.25;96715.63;1826429;77;20935;-83
2022/07/15 07:26:14;;;;;;;5.17;2.30;;;;;;;17.00;74.73;96721.60;1828424;77;20951;-82
2022/07/15 07:28:40;;;;;;;7.15;2.90;;;;;;;17.06;75.38;96721.55;1836002;77;20971;-81
2022/07/15 07:31:08;;;;;;;3.95;2.62;;;;;;;17.13;75.14;96724.13;1816311;77;21051;-83
2022/07/15 07:33:34;;;;;;;5.80;2.60;;;;;;;17.13;73.89;96725.95;1788917;78;20966;-82
2022/07/15 07:36:00;;;;;;;5.45;2.52;;;;;;;17.06;73.36;96737.80;1818885;77;21407;-83
2022/07/15 07:38:26;;;;;;;5.35;2.60;;;;;;;17.05;73.70;96735.69;1820979;77;21000;-83
2022/07/15 07:40:52;;;;;;;5.20;2.85;;;;;;;17.14;73.15;96734.92;1825982;77;20955;-83
2022/07/15 07:43:18;;;;;;;4.50;2.70;;;;;;;17.18;73.75;96733.98;1787024;78;21074;-83
2022/07/15 07:45:45;;;;;;;8.13;2.87;;;;;;;17.15;73.01;96731.80;1790603;78;21062;-83
2022/07/15 07:48:12;;;;;;;6.87;3.00;;;;;;;17.10;72.91;96745.57;1772122;79;20971;-83
2022/07/15 07:50:39;;;;;;;4.15;2.50;;;;;;;17.02;72.71;96749.24;1790220;78;20975;-83
2022/07/15 07:53:05;;;;;;;6.47;2.65;;;;;;;16.95;73.16;96756.88;1789495;78;20999;-83
2022/07/15 07:55:30;;;;;;;5.85;2.83;;;;;;;17.06;72.51;96748.30;1786124;78;22036;-83
2022/07/15 07:57:58;;;;;;;6.75;2.92;;;;;;;17.24;72.92;96750.19;1789488;78;21427;-84
2022/07/15 08:00:26;;;;;;;5.83;2.40;;;;;;;17.27;73.70;96752.41;1783439;79;20939;-82
2022/07/15 08:02:53;;;;;;;11.33;3.12;;;;;;;17.19;72.32;96765.28;1821104;77;20944;-82
2022/07/15 08:05:21;;;;;;;4.55;2.60;;;;;;;17.06;72.28;96763.55;1831199;77;20979;-82
2022/07/15 08:07:47;;;;;;;6.80;2.60;;;;;;;16.94;72.18;96771.83;1820213;77;21422;-83
2022/07/15 08:10:13;;;;;;;5.78;2.62;;;;;;;16.96;72.95;96770.30;1791754;78;21023;-82
2022/07/15 08:12:39;;;;;;;7.65;2.50;;;;;;;17.12;72.72;96767.16;1785356;78;20920;-82
2022/07/15 08:15:07;;;;;;;8.53;3.37;;;;;;;17.09;73.01;96764.45;1759130;80;21048;-81
2022/07/15 08:17:33;;;;;;;5.40;2.45;;;;;;;17.09;72.41;96774.96;1755130;81;21066;-82
2022/07/15 08:19:59;;;;;;;4.78;2.47;;;;;;;17.06;71.80;96783.75;1753981;80;21043;-81
2022/07/15 08:22:25;;;;;;;7.72;3.10;;;;;;;17.14;71.83;96780.88;1755060;81;20960;-83
2022/07/15 08:24:50;;;;;;;5.58;2.50;;;;;;;17.28;70.38;96772.40;1770386;80;21330;-82
2022/07/15 08:27:17;;;;;;;4.83;2.10;;;;;;;17.43;70.62;96764.20;1773460;79;20994;-81
2022/07/15 08:29:43;;;;;;;6.20;2.35;;;;;;;17.46;70.44;96761.13;1772981;80;21011;-82
2022/07/15 08:32:09;;;;;;;3.58;2.10;;;;;;;17.42;68.65;96773.91;1757691;81;21005;-84
2022/07/15 08:34:35;;;;;;;5.47;2.15;;;;;;;17.27;68.52;96770.28;1759278;80;21314;-82
2022/07/15 08:37:01;;;;;;;4.87;2.90;;;;;;;17.19;68.88;96772.35;1779800;79;21479;-83
2022/07/15 08:39:26;;;;;;;5.58;2.70;;;;;;;17.32;69.67;96780.13;1787911;79;20981;-82
2022/07/15 08:41:52;;;;;;;7.45;2.67;;;;;;;17.64;71.25;96788.76;1781934;79;20992;-83
2022/07/15 08:44:18;;;;;;;10.63;5.33;;;;;;;18.06;70.47;96776.66;1780978;79;21094;-83
2022/07/15 08:46:47;;;;;;;7.90;2.80;;;;;;;18.26;69.46;96783.00;1772572;80;21039;-83
2022/07/15 08:49:16;;;;;;;5.72;2.35;;;;;;;18.23;69.01;96779.50;1745772;81;21003;-82
2022/07/15 08:51:45;;;;;;;4.80;2.37;;;;;;;18.14;68.55;96777.66;1757156;80;21354;-84
2022/07/15 08:54:14;;;;;;;5.35;3.12;;;;;;;18.09;67.81;96781.98;1745913;81;20983;-84
2022/07/15 08:56:40;;;;;;;5.83;2.40;;;;;;;18.01;69.09;96781.74;1766357;79;21121;-84
2022/07/15 08:59:06;;;;;;;4.12;1.90;;;;;;;18.17;66.80;96778.53;1763680;79;21042;-83
2022/07/15 09:01:33;;;;;;;4.17;2.33;;;;;;;18.50;67.58;96782.59;1762943;80;21040;-82
2022/07/15 09:03:59;;;;;;;2.67;1.85;;;;;;;18.79;65.78;96790.25;1760484;80;21014;-84
2022/07/15 09:06:45;;;;;;;7.05;1.80;;;;;;;19.08;65.79;96789.44;1721948;81;20958;-84
2022/07/15 09:09:27;;;;;;;3.50;1.82;;;;;;;19.22;64.23;96788.73;1763617;80;21488;-83
2022/07/15 09:12:06;;;;;;;5.50;1.65;;;;;;;19.08;61.43;96793.39;1758450;80;21065;-83
2022/07/15 09:14:34;;;;;;;4.10;1.60;;;;;;;18.85;62.71;96791.98;1780975;78;21063;-82
2022/07/15 09:17:12;;;;;;;3.67;1.80;;;;;;;18.71;64.03;96797.96;1789869;78;21018;-84
2022/07/15 09:20:09;;;;;;;3.92;1.95;;;;;;;18.58;63.92;96804.16;1787115;78;20960;-84
2022/07/15 09:22:59;;;;;;;3.25;1.50;;;;;;;18.44;64.67;96801.40;1791054;78;21002;-85
2022/07/15 09:25:22;;;;;;;5.58;3.40;;;;;;;18.55;63.89;96795.40;1796514;78;21379;-82
2022/07/15 09:27:49;;;;;;;4.25;2.27;;;;;;;18.79;64.71;96792.37;1797829;78;20964;-82
2022/07/15 09:36:19;;;;;;;3.60;2.83;;;;;;;18.65;61.37;96801.47;1790773;78;21030;-83
2022/07/15 09:38:55;;;;;;;4.35;2.05;;;;;;;18.88;62.82;96795.00;1792385;78;21324;-84
2022/07/15 09:41:35;;;;;;;3.25;1.60;;;;;;;18.82;63.20;96782.70;1790881;78;21385;-82
2022/07/15 09:44:12;;;;;;;3.98;1.42;;;;;;;18.90;64.50;96789.50;1806369;77;21007;-82
2022/07/15 09:46:54;;;;;;;3.00;1.10;;;;;;;18.79;62.68;96792.89;1777333;79;21035;-82
2022/07/15 09:49:32;;;;;;;2.20;1.75;;;;;;;18.64;61.99;96795.11;1758411;79;21007;-83
2022/07/15 09:52:07;;;;;;;1.80;1.00;;;;;;;18.61;62.89;96788.44;1768791;79;20972;-83
2022/07/15 09:54:44;;;;;;;3.02;1.55;;;;;;;18.64;60.05;96790.65;1789997;79;21259;-85
2022/07/15 09:57:15;;;;;;;4.08;1.47;;;;;;;18.67;62.43;96783.62;1812911;78;20934;-85
2022/07/15 09:59:44;;;;;;;3.70;1.65;;;;;;;18.71;62.43;96779.54;1796262;78;21352;-82
2022/07/15 10:02:11;;;;;;;2.92;1.30;;;;;;;18.59;61.86;96781.28;1811977;78;20977;-81
2022/07/15 10:04:37;;;;;;;3.60;1.27;;;;;;;18.43;61.44;96783.20;1810336;78;20974;-82
2022/07/15 10:07:04;;;;;;;3.72;1.20;;;;;;;18.44;61.57;96794.02;1808109;77;20932;-81
2022/07/15 10:09:33;;;;;;;3.90;1.62;;;;;;;18.52;61.03;96790.55;1810830;78;21412;-85
2022/07/15 10:12:18;;;;;;;4.03;1.20;;;;;;;18.68;62.04;96792.31;1794346;78;20993;-84
2022/07/15 10:15:04;;;;;;;3.08;1.02;;;;;;;18.94;61.90;96784.59;1802861;78;21528;-85
2022/07/15 10:18:09;;;;;;;2.33;1.07;;;;;;;18.89;61.22;96783.44;1753565;79;21015;-84
2022/07/15 10:21:11;;;;;;;2.83;1.00;;;;;;;18.86;60.97;96783.86;1796788;78;21446;-86
2022/07/15 10:24:12;;;;;;;3.15;1.20;;;;;;;18.84;60.42;96785.91;1786651;78;20951;-83
2022/07/15 10:26:49;;;;;;;3.22;0.93;;;;;;;18.95;61.47;96782.23;1785399;78;21395;-84
2022/07/15 10:29:15;;;;;;;2.95;0.95;;;;;;;19.35;62.11;96779.27;1793102;78;20983;-85
2022/07/15 10:31:41;;;;;;;3.08;0.90;;;;;;;19.67;59.68;96774.52;1789498;78;21039;-84
2022/07/15 10:34:15;;;;;;;2.35;0.82;;;;;;;19.87;59.45;96778.14;1746654;80;21009;-84
2022/07/15 10:36:54;;;;;;;6.75;1.20;;;;;;;20.02;59.33;96772.41;1792920;78;20928;-83
2022/07/15 10:39:22;;;;;;;3.85;1.00;;;;;;;20.25;58.99;96777.63;1788237;78;21032;-83
2022/07/15 10:42:00;;;;;;;2.45;0.90;;;;;;;20.45;57.83;96780.41;1787435;78;21361;-85
2022/07/15 10:44:29;;;;;;;2.40;0.90;;;;;;;20.48;58.36;96772.81;1789307;78;21022;-84
2022/07/15 10:47:18;;;;;;;3.55;0.80;;;;;;;20.43;56.86;96771.92;1793940;78;20965;-82
2022/07/15 10:49:48;;;;;;;2.15;1.02;;;;;;;20.19;53.65;96781.20;1789930;78;21506;-82
2022/07/15 10:52:21;;;;;;;3.20;1.45;;;;;;;19.93;56.39;96785.64;1787986;78;21023;-85
2022/07/15 10:55:01;;;;;;;2.05;1.02;;;;;;;20.04;56.25;96780.88;1786882;78;21073;-83
2022/07/15 10:57:49;;;;;;;2.25;0.70;;;;;;;20.11;57.49;96782.06;1787607;78;21101;-85
2022/07/15 11:00:29;;;;;;;2.00;1.00;;;;;;;20.36;57.78;96778.12;1784093;78;21031;-85
2022/07/15 11:03:13;;;;;;;2.17;0.80;;;;;;;20.63;55.39;96780.23;1795444;78;20995;-82
2022/07/15 11:05:57;;;;;;;1.98;0.90;;;;;;;20.68;54.85;96784.30;1794199;78;21030;-83
2022/07/15 11:08:39;;;;;;;2.60;1.27;;;;;;;20.47;55.73;96791.02;1797714;78;21006;-86
2022/07/15 11:11:23;;;;;;;1.45;0.50;;;;;;;20.25;55.05;96792.13;1792213;78;20964;-85
2022/07/15 11:13:49;;;;;;;1.82;0.75;;;;;;;20.15;53.63;96789.27;1787234;78;20947;-85
2022/07/15 11:16:19;;;;;;;1.57;0.80;;;;;;;20.21;53.87;96787.05;1760069;80;21032;-84
2022/07/15 11:18:53;;;;;;;3.17;0.98;;;;;;;20.02;54.20;96786.39;1761772;80;21383;-83
2022/07/15 11:21:20;;;;;;;1.05;0.62;;;;;;;19.87;54.35;96790.53;1757638;80;20996;-82
2022/07/15 11:23:47;;;;;;;2.08;0.68;;;;;;;19.76;52.03;96792.93;1757241;80;21053;-83
2022/07/15 11:26:13;;;;;;;3.27;0.68;;;;;;;19.72;53.30;96785.72;1755704;80;21000;-83
2022/07/15 11:28:54;;;;;;;3.15;0.70;;;;;;;19.67;52.96;96781.62;1790622;79;21014;-83
2022/07/15 11:31:21;;;;;;;0.98;0.60;;;;;;;19.69;53.60;96783.55;1787960;79;20990;-83
2022/07/15 11:33:47;;;;;;;1.45;0.62;;;;;;;20.01;56.21;96783.95;1754589;80;20946;-82
2022/07/15 11:36:22;;;;;;;2.87;0.72;;;;;;;20.28;54.97;96786.38;1771944;79;20907;-85
2022/07/15 11:38:48;;;;;;;2.25;0.72;;;;;;;20.50;53.74;96781.33;1774422;79;21008;-83
2022/07/15 11:46:49;;;;;;;2.60;0.80;;;;;;;20.88;50.92;96779.91;1787116;79;20999;-83
2022/07/15 11:49:35;;;;;;;2.87;0.70;;;;;;;20.86;51.45;96778.03;1788921;79;20976;-86
2022/07/15 11:52:04;;;;;;;1.65;0.65;;;;;;;20.57;50.74;96779.34;1787321;79;21651;-83